sensor_id;sensor_type;location;lat;lon;timestamp;temperature;humidity
22503;DHT22;11418;48.118;9.992;2023-06-22T00:00:58;18.20;99.90
22503;DHT22;11418;48.118;9.992;2023-06-22T00:04:59;18.10;99.90
22503;DHT22;11418;48.118;9.992;2023-06-22T00:08:59;18.00;99.90
22503;DHT22;11418;48.118;9.992;2023-06-22T00:13:00;17.90;99.90
22503;DHT22;11418;48.118;9.992;2023-06-22T00:17:00;17.90;99.90
22503;DHT22;11418;48.118;9.992;2023-06-22T00:25:39;17.70;99.90
22503;DHT22;11418;48.118;9.992;2023-06-22T00:29:40;17.70;99.90
22503;DHT22;11418;48.118;9.992;2023-06-22T00:33:40;17.70;99.90
22503;DHT22;11418;48.118;9.992;2023-06-22T00:37:41;17.70;99.90
22503;DHT22;11418;48.118;9.992;2023-06-22T00:41:42;17.70;99.90
22503;DHT22;11418;48.118;9.992;2023-06-22T00:45:43;17.70;99.90
22503;DHT22;11418;48.118;9.992;2023-06-22T00:49:43;17.90;99.90
22503;DHT22;11418;48.118;9.992;2023-06-22T00:53:44;18.30;99.90
22503;DHT22;11418;48.118;9.992;2023-06-22T00:57:48;17.80;99.90
22503;DHT22;11418;48.118;9.992;2023-06-22T01:01:48;17.40;99.90
22503;DHT22;11418;48.118;9.992;2023-06-22T01:05:49;18.00;99.90
22503;DHT22;11418;48.118;9.992;2023-06-22T01:10:24;17.80;99.90
22503;DHT22;11418;48.118;9.992;2023-06-22T01:18:26;17.20;99.90
22503;DHT22;11418;48.118;9.992;2023-06-22T01:22:29;17.40;99.90
22503;DHT22;11418;48.118;9.992;2023-06-22T01:30:50;17.30;99.90
22503;DHT22;11418;48.118;9.992;2023-06-22T01:35:01;17.00;99.90
22503;DHT22;11418;48.118;9.992;2023-06-22T01:39:03;16.70;99.90
22503;DHT22;11418;48.118;9.992;2023-06-22T01:43:04;17.30;99.90
22503;DHT22;11418;48.118;9.992;2023-06-22T01:47:05;17.20;99.90
22503;DHT22;11418;48.118;9.992;2023-06-22T01:51:07;17.20;99.90
22503;DHT22;11418;48.118;9.992;2023-06-22T01:55:07;17.30;99.90
22503;DHT22;11418;48.118;9.992;2023-06-22T02:03:10;16.50;99.90
22503;DHT22;11418;48.118;9.992;2023-06-22T02:07:13;16.60;99.90
22503;DHT22;11418;48.118;9.992;2023-06-22T02:11:15;16.50;99.90
22503;DHT22;11418;48.118;9.992;2023-06-22T02:15:16;17.30;99.90
22503;DHT22;11418;48.118;9.992;2023-06-22T02:19:17;16.60;99.90
22503;DHT22;11418;48.118;9.992;2023-06-22T02:23:22;16.60;99.90
22503;DHT22;11418;48.118;9.992;2023-06-22T02:27:22;16.40;99.90
22503;DHT22;11418;48.118;9.992;2023-06-22T02:31:23;16.50;99.90
22503;DHT22;11418;48.118;9.992;2023-06-22T02:35:30;16.30;99.90
22503;DHT22;11418;48.118;9.992;2023-06-22T02:39:35;16.30;99.90
22503;DHT22;11418;48.118;9.992;2023-06-22T02:43:36;16.40;99.90
22503;DHT22;11418;48.118;9.992;2023-06-22T02:47:36;16.20;99.90
22503;DHT22;11418;48.118;9.992;2023-06-22T02:51:41;16.00;99.90
22503;DHT22;11418;48.118;9.992;2023-06-22T02:55:42;16.20;99.90
22503;DHT22;11418;48.118;9.992;2023-06-22T02:59:43;16.10;99.90
22503;DHT22;11418;48.118;9.992;2023-06-22T03:03:43;16.00;99.90
22503;DHT22;11418;48.118;9.992;2023-06-22T03:07:44;16.00;99.90
22503;DHT22;11418;48.118;9.992;2023-06-22T03:11:45;16.10;99.90
22503;DHT22;11418;48.118;9.992;2023-06-22T03:15:45;15.90;99.90
22503;DHT22;11418;48.118;9.992;2023-06-22T03:19:46;16.20;99.90
22503;DHT22;11418;48.118;9.992;2023-06-22T03:23:46;15.80;99.90
22503;DHT22;11418;48.118;9.992;2023-06-22T03:27:47;15.80;99.90
22503;DHT22;11418;48.118;9.992;2023-06-22T03:31:48;16.40;99.90
22503;DHT22;11418;48.118;9.992;2023-06-22T03:35:48;15.80;99.90
22503;DHT22;11418;48.118;9.992;2023-06-22T03:39:50;15.90;99.90
22503;DHT22;11418;48.118;9.992;2023-06-22T03:43:50;16.20;99.90
22503;DHT22;11418;48.118;9.992;2023-06-22T03:47:51;16.20;99.90
22503;DHT22;11418;48.118;9.992;2023-06-22T03:51:51;16.30;99.90
22503;DHT22;11418;48.118;9.992;2023-06-22T03:55:52;16.30;99.90
22503;DHT22;11418;48.118;9.992;2023-06-22T03:59:53;16.10;99.90
22503;DHT22;11418;48.118;9.992;2023-06-22T04:03:54;16.10;99.90
22503;DHT22;11418;48.118;9.992;2023-06-22T04:07:54;16.30;99.90
22503;DHT22;11418;48.118;9.992;2023-06-22T04:11:55;16.70;99.90
22503;DHT22;11418;48.118;9.992;2023-06-22T04:15:55;17.10;99.90
22503;DHT22;11418;48.118;9.992;2023-06-22T04:19:56;17.20;99.90
22503;DHT22;11418;48.118;9.992;2023-06-22T04:23:56;17.00;99.90
22503;DHT22;11418;48.118;9.992;2023-06-22T04:27:57;17.10;99.90
22503;DHT22;11418;48.118;9.992;2023-06-22T04:31:57;17.30;99.90
22503;DHT22;11418;48.118;9.992;2023-06-22T04:35:58;17.70;99.90
22503;DHT22;11418;48.118;9.992;2023-06-22T04:40:01;18.60;99.90
22503;DHT22;11418;48.118;9.992;2023-06-22T04:44:03;19.10;99.90
22503;DHT22;11418;48.118;9.992;2023-06-22T04:48:05;18.90;99.90
22503;DHT22;11418;48.118;9.992;2023-06-22T04:52:07;19.60;99.90
22503;DHT22;11418;48.118;9.992;2023-06-22T04:56:08;19.80;99.90
22503;DHT22;11418;48.118;9.992;2023-06-22T05:00:08;20.30;99.90
22503;DHT22;11418;48.118;9.992;2023-06-22T05:04:17;20.70;99.90
22503;DHT22;11418;48.118;9.992;2023-06-22T05:08:17;21.50;99.90
22503;DHT22;11418;48.118;9.992;2023-06-22T05:12:18;21.40;99.90
22503;DHT22;11418;48.118;9.992;2023-06-22T05:16:18;21.20;99.90
22503;DHT22;11418;48.118;9.992;2023-06-22T05:20:24;21.90;99.90
22503;DHT22;11418;48.118;9.992;2023-06-22T05:24:24;22.20;99.90
22503;DHT22;11418;48.118;9.992;2023-06-22T05:28:25;21.40;99.90
22503;DHT22;11418;48.118;9.992;2023-06-22T05:32:25;21.80;99.90
22503;DHT22;11418;48.118;9.992;2023-06-22T05:36:26;22.40;99.90
22503;DHT22;11418;48.118;9.992;2023-06-22T05:40:26;22.20;99.90
22503;DHT22;11418;48.118;9.992;2023-06-22T05:44:27;22.80;99.90
22503;DHT22;11418;48.118;9.992;2023-06-22T05:48:27;22.90;99.90
22503;DHT22;11418;48.118;9.992;2023-06-22T05:52:28;22.80;99.90
22503;DHT22;11418;48.118;9.992;2023-06-22T05:56:28;23.10;99.90
22503;DHT22;11418;48.118;9.992;2023-06-22T06:00:29;23.50;99.90
22503;DHT22;11418;48.118;9.992;2023-06-22T06:04:29;23.80;99.90
22503;DHT22;11418;48.118;9.992;2023-06-22T06:08:30;24.20;99.90
22503;DHT22;11418;48.118;9.992;2023-06-22T06:12:30;24.70;99.90
22503;DHT22;11418;48.118;9.992;2023-06-22T06:16:31;24.60;99.90
22503;DHT22;11418;48.118;9.992;2023-06-22T06:20:32;25.20;99.90
22503;DHT22;11418;48.118;9.992;2023-06-22T06:24:32;25.40;99.90
22503;DHT22;11418;48.118;9.992;2023-06-22T06:28:33;26.00;99.90
22503;DHT22;11418;48.118;9.992;2023-06-22T06:32:34;25.90;99.90
22503;DHT22;11418;48.118;9.992;2023-06-22T06:36:34;25.70;99.90
22503;DHT22;11418;48.118;9.992;2023-06-22T06:40:35;26.10;99.90
22503;DHT22;11418;48.118;9.992;2023-06-22T06:44:35;26.50;99.90
22503;DHT22;11418;48.118;9.992;2023-06-22T06:48:37;27.20;99.90
22503;DHT22;11418;48.118;9.992;2023-06-22T06:52:38;27.70;99.90
22503;DHT22;11418;48.118;9.992;2023-06-22T06:56:38;27.20;99.90
22503;DHT22;11418;48.118;9.992;2023-06-22T07:00:39;27.30;99.90
22503;DHT22;11418;48.118;9.992;2023-06-22T07:04:39;27.40;99.90
22503;DHT22;11418;48.118;9.992;2023-06-22T07:08:40;27.30;99.90
22503;DHT22;11418;48.118;9.992;2023-06-22T07:12:40;27.30;99.90
22503;DHT22;11418;48.118;9.992;2023-06-22T07:16:41;28.10;99.90
22503;DHT22;11418;48.118;9.992;2023-06-22T07:20:41;28.80;99.90
22503;DHT22;11418;48.118;9.992;2023-06-22T07:24:42;29.10;99.90
22503;DHT22;11418;48.118;9.992;2023-06-22T07:28:42;29.20;99.90
22503;DHT22;11418;48.118;9.992;2023-06-22T07:32:43;29.60;99.90
22503;DHT22;11418;48.118;9.992;2023-06-22T07:36:43;29.50;99.90
22503;DHT22;11418;48.118;9.992;2023-06-22T07:40:45;29.70;99.90
22503;DHT22;11418;48.118;9.992;2023-06-22T07:44:45;29.50;99.90
22503;DHT22;11418;48.118;9.992;2023-06-22T07:48:46;30.10;99.90
22503;DHT22;11418;48.118;9.992;2023-06-22T07:52:46;29.90;99.90
22503;DHT22;11418;48.118;9.992;2023-06-22T07:56:48;30.20;99.90
22503;DHT22;11418;48.118;9.992;2023-06-22T08:00:48;30.40;99.90
22503;DHT22;11418;48.118;9.992;2023-06-22T08:04:49;30.90;99.90
22503;DHT22;11418;48.118;9.992;2023-06-22T08:08:50;31.30;99.90
22503;DHT22;11418;48.118;9.992;2023-06-22T08:12:54;31.70;99.90
22503;DHT22;11418;48.118;9.992;2023-06-22T08:16:54;31.40;99.90
22503;DHT22;11418;48.118;9.992;2023-06-22T08:20:54;31.20;99.90
22503;DHT22;11418;48.118;9.992;2023-06-22T08:24:55;31.30;99.90
22503;DHT22;11418;48.118;9.992;2023-06-22T08:28:55;31.30;99.90
22503;DHT22;11418;48.118;9.992;2023-06-22T08:32:56;31.60;99.90
22503;DHT22;11418;48.118;9.992;2023-06-22T08:36:56;31.80;99.90
22503;DHT22;11418;48.118;9.992;2023-06-22T08:40:57;32.00;99.90
22503;DHT22;11418;48.118;9.992;2023-06-22T08:44:57;32.30;99.90
22503;DHT22;11418;48.118;9.992;2023-06-22T08:48:59;32.30;99.90
22503;DHT22;11418;48.118;9.992;2023-06-22T08:52:59;32.80;99.90
22503;DHT22;11418;48.118;9.992;2023-06-22T08:57:00;32.90;99.90
22503;DHT22;11418;48.118;9.992;2023-06-22T09:01:00;32.90;99.90
22503;DHT22;11418;48.118;9.992;2023-06-22T09:05:02;33.40;99.90
22503;DHT22;11418;48.118;9.992;2023-06-22T09:09:03;33.90;99.90
22503;DHT22;11418;48.118;9.992;2023-06-22T09:13:03;33.80;99.90
22503;DHT22;11418;48.118;9.992;2023-06-22T09:17:04;33.10;99.90
22503;DHT22;11418;48.118;9.992;2023-06-22T09:21:05;32.50;99.90
22503;DHT22;11418;48.118;9.992;2023-06-22T09:25:05;32.40;99.90
22503;DHT22;11418;48.118;9.992;2023-06-22T09:29:06;31.80;99.90
22503;DHT22;11418;48.118;9.992;2023-06-22T09:33:06;31.50;99.90
22503;DHT22;11418;48.118;9.992;2023-06-22T09:37:07;32.30;99.90
22503;DHT22;11418;48.118;9.992;2023-06-22T09:41:07;33.00;99.90
22503;DHT22;11418;48.118;9.992;2023-06-22T09:45:07;32.90;99.90
22503;DHT22;11418;48.118;9.992;2023-06-22T09:49:08;33.20;99.90
22503;DHT22;11418;48.118;9.992;2023-06-22T09:53:08;33.10;99.90
22503;DHT22;11418;48.118;9.992;2023-06-22T09:57:09;33.50;99.90
22503;DHT22;11418;48.118;9.992;2023-06-22T10:01:09;32.50;99.90
22503;DHT22;11418;48.118;9.992;2023-06-22T10:05:10;31.60;99.90
22503;DHT22;11418;48.118;9.992;2023-06-22T10:09:11;31.70;99.90
22503;DHT22;11418;48.118;9.992;2023-06-22T10:13:11;32.40;99.90
22503;DHT22;11418;48.118;9.992;2023-06-22T10:17:12;32.50;99.90
22503;DHT22;11418;48.118;9.992;2023-06-22T10:21:12;32.60;99.90
22503;DHT22;11418;48.118;9.992;2023-06-22T10:25:13;32.40;99.90
22503;DHT22;11418;48.118;9.992;2023-06-22T10:29:13;32.50;99.90
22503;DHT22;11418;48.118;9.992;2023-06-22T10:33:14;32.90;99.90
22503;DHT22;11418;48.118;9.992;2023-06-22T10:37:14;33.30;99.90
22503;DHT22;11418;48.118;9.992;2023-06-22T10:41:15;33.70;99.90
22503;DHT22;11418;48.118;9.992;2023-06-22T10:45:16;34.30;99.90
22503;DHT22;11418;48.118;9.992;2023-06-22T10:49:17;34.80;99.90
22503;DHT22;11418;48.118;9.992;2023-06-22T10:53:17;35.20;99.90
22503;DHT22;11418;48.118;9.992;2023-06-22T10:57:18;35.40;99.90
22503;DHT22;11418;48.118;9.992;2023-06-22T11:01:19;35.80;99.90
22503;DHT22;11418;48.118;9.992;2023-06-22T11:05:20;35.80;99.90
22503;DHT22;11418;48.118;9.992;2023-06-22T11:09:20;36.30;99.40
22503;DHT22;11418;48.118;9.992;2023-06-22T11:13:21;36.60;96.80
22503;DHT22;11418;48.118;9.992;2023-06-22T11:17:21;36.40;96.10
22503;DHT22;11418;48.118;9.992;2023-06-22T11:21:22;36.40;94.90
22503;DHT22;11418;48.118;9.992;2023-06-22T11:25:22;37.00;94.40
22503;DHT22;11418;48.118;9.992;2023-06-22T11:29:23;37.40;95.10
22503;DHT22;11418;48.118;9.992;2023-06-22T11:33:23;38.10;91.80
22503;DHT22;11418;48.118;9.992;2023-06-22T11:37:24;38.40;91.80
22503;DHT22;11418;48.118;9.992;2023-06-22T11:41:24;38.70;90.80
22503;DHT22;11418;48.118;9.992;2023-06-22T11:45:25;38.90;88.20
22503;DHT22;11418;48.118;9.992;2023-06-22T11:49:25;40.40;85.90
22503;DHT22;11418;48.118;9.992;2023-06-22T11:53:26;40.90;79.00
22503;DHT22;11418;48.118;9.992;2023-06-22T11:57:26;39.70;82.10
22503;DHT22;11418;48.118;9.992;2023-06-22T12:01:27;38.80;81.70
22503;DHT22;11418;48.118;9.992;2023-06-22T12:05:27;37.20;87.90
22503;DHT22;11418;48.118;9.992;2023-06-22T12:09:28;36.90;88.60
22503;DHT22;11418;48.118;9.992;2023-06-22T12:13:28;37.40;87.10
22503;DHT22;11418;48.118;9.992;2023-06-22T12:17:29;36.80;90.20
22503;DHT22;11418;48.118;9.992;2023-06-22T12:21:30;35.80;90.70
22503;DHT22;11418;48.118;9.992;2023-06-22T12:25:30;35.80;91.90
22503;DHT22;11418;48.118;9.992;2023-06-22T12:29:31;35.00;93.30
22503;DHT22;11418;48.118;9.992;2023-06-22T12:33:31;34.60;93.60
22503;DHT22;11418;48.118;9.992;2023-06-22T12:37:32;35.20;92.70
22503;DHT22;11418;48.118;9.992;2023-06-22T12:41:32;36.20;92.30
22503;DHT22;11418;48.118;9.992;2023-06-22T12:45:33;36.20;91.40
22503;DHT22;11418;48.118;9.992;2023-06-22T12:49:35;35.40;93.00
22503;DHT22;11418;48.118;9.992;2023-06-22T12:53:35;34.90;93.60
22503;DHT22;11418;48.118;9.992;2023-06-22T12:57:36;34.20;94.80
22503;DHT22;11418;48.118;9.992;2023-06-22T13:01:36;33.70;93.00
22503;DHT22;11418;48.118;9.992;2023-06-22T13:05:37;33.40;96.40
22503;DHT22;11418;48.118;9.992;2023-06-22T13:09:38;33.20;94.80
22503;DHT22;11418;48.118;9.992;2023-06-22T13:13:39;33.30;95.00
22503;DHT22;11418;48.118;9.992;2023-06-22T13:17:39;33.20;95.00
22503;DHT22;11418;48.118;9.992;2023-06-22T13:21:40;33.10;95.40
22503;DHT22;11418;48.118;9.992;2023-06-22T13:25:40;33.00;94.60
22503;DHT22;11418;48.118;9.992;2023-06-22T13:29:41;33.30;94.80
22503;DHT22;11418;48.118;9.992;2023-06-22T13:33:41;34.20;95.10
22503;DHT22;11418;48.118;9.992;2023-06-22T13:37:42;33.80;94.80
22503;DHT22;11418;48.118;9.992;2023-06-22T13:41:42;33.50;97.40
22503;DHT22;11418;48.118;9.992;2023-06-22T13:45:44;32.60;99.80
22503;DHT22;11418;48.118;9.992;2023-06-22T13:49:44;32.60;99.60
22503;DHT22;11418;48.118;9.992;2023-06-22T13:53:44;32.50;99.20
22503;DHT22;11418;48.118;9.992;2023-06-22T13:57:45;32.60;99.90
22503;DHT22;11418;48.118;9.992;2023-06-22T14:01:45;32.70;99.90
22503;DHT22;11418;48.118;9.992;2023-06-22T14:05:46;32.70;99.90
22503;DHT22;11418;48.118;9.992;2023-06-22T14:09:47;32.80;99.90
22503;DHT22;11418;48.118;9.992;2023-06-22T14:13:47;33.50;99.20
22503;DHT22;11418;48.118;9.992;2023-06-22T14:17:48;33.20;99.30
22503;DHT22;11418;48.118;9.992;2023-06-22T14:21:48;33.10;99.30
22503;DHT22;11418;48.118;9.992;2023-06-22T14:25:48;33.20;99.20
22503;DHT22;11418;48.118;9.992;2023-06-22T14:29:49;35.10;97.60
22503;DHT22;11418;48.118;9.992;2023-06-22T14:33:50;36.50;95.30
22503;DHT22;11418;48.118;9.992;2023-06-22T14:37:50;36.90;93.70
22503;DHT22;11418;48.118;9.992;2023-06-22T14:41:50;37.80;94.30
22503;DHT22;11418;48.118;9.992;2023-06-22T14:45:51;38.20;91.50
22503;DHT22;11418;48.118;9.992;2023-06-22T14:49:51;38.30;91.00
22503;DHT22;11418;48.118;9.992;2023-06-22T14:53:52;39.80;86.10
22503;DHT22;11418;48.118;9.992;2023-06-22T14:57:52;39.90;77.10
22503;DHT22;11418;48.118;9.992;2023-06-22T15:01:53;40.30;69.50
22503;DHT22;11418;48.118;9.992;2023-06-22T15:05:53;39.50;74.70
22503;DHT22;11418;48.118;9.992;2023-06-22T15:09:54;38.70;76.50
22503;DHT22;11418;48.118;9.992;2023-06-22T15:13:57;37.90;83.40
22503;DHT22;11418;48.118;9.992;2023-06-22T15:17:58;37.00;83.60
22503;DHT22;11418;48.118;9.992;2023-06-22T15:21:58;36.20;85.50
22503;DHT22;11418;48.118;9.992;2023-06-22T15:26:00;35.20;88.00
22503;DHT22;11418;48.118;9.992;2023-06-22T15:30:01;34.20;91.20
22503;DHT22;11418;48.118;9.992;2023-06-22T15:34:03;33.50;92.60
22503;DHT22;11418;48.118;9.992;2023-06-22T15:38:03;33.00;94.30
22503;DHT22;11418;48.118;9.992;2023-06-22T15:42:04;32.40;95.70
22503;DHT22;11418;48.118;9.992;2023-06-22T15:46:04;31.70;96.60
22503;DHT22;11418;48.118;9.992;2023-06-22T15:50:05;31.30;98.80
22503;DHT22;11418;48.118;9.992;2023-06-22T15:54:06;31.10;99.90
22503;DHT22;11418;48.118;9.992;2023-06-22T15:58:06;30.90;99.70
22503;DHT22;11418;48.118;9.992;2023-06-22T16:02:07;31.30;99.10
22503;DHT22;11418;48.118;9.992;2023-06-22T16:06:08;31.70;99.10
22503;DHT22;11418;48.118;9.992;2023-06-22T16:10:08;31.80;98.70
22503;DHT22;11418;48.118;9.992;2023-06-22T16:14:09;31.90;98.00
22503;DHT22;11418;48.118;9.992;2023-06-22T16:18:10;31.90;99.90
22503;DHT22;11418;48.118;9.992;2023-06-22T16:22:10;31.90;99.90
22503;DHT22;11418;48.118;9.992;2023-06-22T16:26:11;31.80;99.00
22503;DHT22;11418;48.118;9.992;2023-06-22T16:30:11;31.40;99.90
22503;DHT22;11418;48.118;9.992;2023-06-22T16:34:12;31.30;99.90
22503;DHT22;11418;48.118;9.992;2023-06-22T16:38:12;31.30;99.90
22503;DHT22;11418;48.118;9.992;2023-06-22T16:42:13;31.60;99.60
22503;DHT22;11418;48.118;9.992;2023-06-22T16:46:13;31.80;99.70
22503;DHT22;11418;48.118;9.992;2023-06-22T16:50:14;32.10;99.60
22503;DHT22;11418;48.118;9.992;2023-06-22T16:54:14;32.00;99.70
22503;DHT22;11418;48.118;9.992;2023-06-22T16:58:15;31.80;99.00
22503;DHT22;11418;48.118;9.992;2023-06-22T17:02:18;31.60;99.60
22503;DHT22;11418;48.118;9.992;2023-06-22T17:06:19;31.60;99.40
22503;DHT22;11418;48.118;9.992;2023-06-22T17:10:22;31.40;98.80
22503;DHT22;11418;48.118;9.992;2023-06-22T17:14:23;31.10;98.60
22503;DHT22;11418;48.118;9.992;2023-06-22T17:18:26;30.80;99.00
22503;DHT22;11418;48.118;9.992;2023-06-22T17:22:29;30.30;97.80
22503;DHT22;11418;48.118;9.992;2023-06-22T17:26:35;30.10;98.60
22503;DHT22;11418;48.118;9.992;2023-06-22T17:30:36;29.90;99.00
22503;DHT22;11418;48.118;9.992;2023-06-22T17:34:36;29.70;99.20
22503;DHT22;11418;48.118;9.992;2023-06-22T17:38:37;29.40;99.70
22503;DHT22;11418;48.118;9.992;2023-06-22T17:42:37;29.10;99.90
22503;DHT22;11418;48.118;9.992;2023-06-22T17:46:38;28.80;99.90
22503;DHT22;11418;48.118;9.992;2023-06-22T17:50:39;28.70;99.90
22503;DHT22;11418;48.118;9.992;2023-06-22T17:54:40;28.20;99.90
22503;DHT22;11418;48.118;9.992;2023-06-22T17:58:49;27.90;99.90
22503;DHT22;11418;48.118;9.992;2023-06-22T18:02:49;27.60;99.90
22503;DHT22;11418;48.118;9.992;2023-06-22T18:06:50;27.40;99.90
22503;DHT22;11418;48.118;9.992;2023-06-22T18:10:51;27.10;99.90
22503;DHT22;11418;48.118;9.992;2023-06-22T18:14:53;27.00;99.90
22503;DHT22;11418;48.118;9.992;2023-06-22T18:18:54;26.60;99.90
22503;DHT22;11418;48.118;9.992;2023-06-22T18:22:55;26.50;99.90
22503;DHT22;11418;48.118;9.992;2023-06-22T18:26:55;26.40;99.90
22503;DHT22;11418;48.118;9.992;2023-06-22T18:30:57;26.00;99.90
22503;DHT22;11418;48.118;9.992;2023-06-22T18:34:58;25.60;99.90
22503;DHT22;11418;48.118;9.992;2023-06-22T18:39:00;25.50;99.60
22503;DHT22;11418;48.118;9.992;2023-06-22T18:43:01;25.40;99.90
22503;DHT22;11418;48.118;9.992;2023-06-22T18:47:02;24.60;99.90
22503;DHT22;11418;48.118;9.992;2023-06-22T18:51:10;23.30;99.90
22503;DHT22;11418;48.118;9.992;2023-06-22T18:55:11;21.50;99.90
22503;DHT22;11418;48.118;9.992;2023-06-22T18:59:12;21.00;99.90
22503;DHT22;11418;48.118;9.992;2023-06-22T19:03:21;20.70;99.90
22503;DHT22;11418;48.118;9.992;2023-06-22T19:07:23;20.30;99.90
22503;DHT22;11418;48.118;9.992;2023-06-22T19:11:42;20.70;99.90
22503;DHT22;11418;48.118;9.992;2023-06-22T19:15:43;20.50;99.90
22503;DHT22;11418;48.118;9.992;2023-06-22T19:19:43;21.00;99.90
22503;DHT22;11418;48.118;9.992;2023-06-22T19:23:45;21.10;99.90
22503;DHT22;11418;48.118;9.992;2023-06-22T19:27:47;21.30;99.90
22503;DHT22;11418;48.118;9.992;2023-06-22T19:31:48;21.30;99.90
22503;DHT22;11418;48.118;9.992;2023-06-22T19:35:50;21.20;99.90
22503;DHT22;11418;48.118;9.992;2023-06-22T19:39:51;21.90;99.90
22503;DHT22;11418;48.118;9.992;2023-06-22T19:43:51;21.50;99.90
22503;DHT22;11418;48.118;9.992;2023-06-22T19:47:52;21.30;99.90
22503;DHT22;11418;48.118;9.992;2023-06-22T19:51:52;21.30;99.90
22503;DHT22;11418;48.118;9.992;2023-06-22T19:55:53;21.40;99.90
22503;DHT22;11418;48.118;9.992;2023-06-22T19:59:53;21.20;99.90
22503;DHT22;11418;48.118;9.992;2023-06-22T20:03:54;21.30;99.90
22503;DHT22;11418;48.118;9.992;2023-06-22T20:07:55;21.10;99.90
22503;DHT22;11418;48.118;9.992;2023-06-22T20:11:56;20.70;99.90
22503;DHT22;11418;48.118;9.992;2023-06-22T20:15:56;20.70;99.90
22503;DHT22;11418;48.118;9.992;2023-06-22T20:19:57;20.70;99.90
22503;DHT22;11418;48.118;9.992;2023-06-22T20:24:07;20.90;99.90
22503;DHT22;11418;48.118;9.992;2023-06-22T20:28:11;20.70;99.90
22503;DHT22;11418;48.118;9.992;2023-06-22T20:32:13;20.70;99.90
22503;DHT22;11418;48.118;9.992;2023-06-22T20:36:13;20.50;99.90
22503;DHT22;11418;48.118;9.992;2023-06-22T20:40:16;20.50;99.90
22503;DHT22;11418;48.118;9.992;2023-06-22T20:44:17;20.30;99.90
22503;DHT22;11418;48.118;9.992;2023-06-22T20:48:17;20.30;99.90
22503;DHT22;11418;48.118;9.992;2023-06-22T20:52:21;20.20;99.90
22503;DHT22;11418;48.118;9.992;2023-06-22T20:56:22;20.10;99.90
22503;DHT22;11418;48.118;9.992;2023-06-22T21:00:24;20.00;99.90
22503;DHT22;11418;48.118;9.992;2023-06-22T21:04:24;20.30;99.90
22503;DHT22;11418;48.118;9.992;2023-06-22T21:08:25;19.90;99.90
22503;DHT22;11418;48.118;9.992;2023-06-22T21:12:26;20.10;99.90
22503;DHT22;11418;48.118;9.992;2023-06-22T21:16:26;20.00;99.90
22503;DHT22;11418;48.118;9.992;2023-06-22T21:20:27;20.60;99.90
22503;DHT22;11418;48.118;9.992;2023-06-22T21:24:27;20.10;99.90
22503;DHT22;11418;48.118;9.992;2023-06-22T21:28:28;20.10;99.90
22503;DHT22;11418;48.118;9.992;2023-06-22T21:32:28;20.10;99.90
22503;DHT22;11418;48.118;9.992;2023-06-22T21:36:28;19.90;99.90
22503;DHT22;11418;48.118;9.992;2023-06-22T21:40:29;20.20;99.90
22503;DHT22;11418;48.118;9.992;2023-06-22T21:44:29;20.60;99.90
22503;DHT22;11418;48.118;9.992;2023-06-22T21:48:30;20.30;99.90
22503;DHT22;11418;48.118;9.992;2023-06-22T21:52:30;20.50;99.90
22503;DHT22;11418;48.118;9.992;2023-06-22T21:56:31;20.30;99.90
22503;DHT22;11418;48.118;9.992;2023-06-22T22:00:31;20.10;99.90
22503;DHT22;11418;48.118;9.992;2023-06-22T22:04:32;20.60;99.90
22503;DHT22;11418;48.118;9.992;2023-06-22T22:08:32;20.20;99.90
22503;DHT22;11418;48.118;9.992;2023-06-22T22:12:33;19.40;99.90
22503;DHT22;11418;48.118;9.992;2023-06-22T22:16:34;19.80;99.90
22503;DHT22;11418;48.118;9.992;2023-06-22T22:20:35;19.30;99.90
22503;DHT22;11418;48.118;9.992;2023-06-22T22:24:36;19.00;99.90
22503;DHT22;11418;48.118;9.992;2023-06-22T22:28:36;19.00;99.90
22503;DHT22;11418;48.118;9.992;2023-06-22T22:32:36;19.30;99.90
22503;DHT22;11418;48.118;9.992;2023-06-22T22:36:39;19.20;99.90
22503;DHT22;11418;48.118;9.992;2023-06-22T22:40:39;19.30;99.90
22503;DHT22;11418;48.118;9.992;2023-06-22T22:44:39;19.30;99.90
22503;DHT22;11418;48.118;9.992;2023-06-22T22:48:40;19.20;99.90
22503;DHT22;11418;48.118;9.992;2023-06-22T22:52:41;19.20;99.90
22503;DHT22;11418;48.118;9.992;2023-06-22T22:56:41;19.10;99.90
22503;DHT22;11418;48.118;9.992;2023-06-22T23:00:42;19.20;99.90
22503;DHT22;11418;48.118;9.992;2023-06-22T23:04:42;19.40;99.90
22503;DHT22;11418;48.118;9.992;2023-06-22T23:08:42;19.20;99.90
22503;DHT22;11418;48.118;9.992;2023-06-22T23:12:43;19.10;99.90
22503;DHT22;11418;48.118;9.992;2023-06-22T23:16:43;19.00;99.90
22503;DHT22;11418;48.118;9.992;2023-06-22T23:20:44;19.10;99.90
22503;DHT22;11418;48.118;9.992;2023-06-22T23:24:45;18.90;99.90
22503;DHT22;11418;48.118;9.992;2023-06-22T23:28:46;18.90;99.90
22503;DHT22;11418;48.118;9.992;2023-06-22T23:32:46;18.80;99.90
22503;DHT22;11418;48.118;9.992;2023-06-22T23:36:47;18.90;99.90
22503;DHT22;11418;48.118;9.992;2023-06-22T23:40:47;19.10;99.90
22503;DHT22;11418;48.118;9.992;2023-06-22T23:44:48;18.60;99.90
22503;DHT22;11418;48.118;9.992;2023-06-22T23:48:48;18.60;99.90
22503;DHT22;11418;48.118;9.992;2023-06-22T23:52:49;18.50;99.90
22503;DHT22;11418;48.118;9.992;2023-06-22T23:56:50;18.20;99.90
